createdAt,value
2023-10-30T06:35:30.759Z,50.888786
2023-10-30T06:36:30.781Z,50.888786
2023-10-30T06:37:30.826Z,50.875679
2023-10-30T06:38:30.683Z,50.875641
2023-10-30T06:39:30.658Z,50.875435
2023-10-30T06:40:30.657Z,50.875584
2023-10-30T06:41:30.631Z,50.875412
2023-10-30T06:42:30.748Z,50.875332
2023-10-30T06:43:30.595Z,50.875244
2023-10-30T06:44:30.642Z,50.875233
2023-10-30T06:45:30.614Z,50.875347
2023-10-30T06:46:30.674Z,50.874454
2023-10-30T06:47:30.625Z,50.874454
2023-10-30T06:48:30.621Z,50.874454
2023-10-30T06:49:30.657Z,50.874893
2023-10-30T06:50:30.575Z,50.875164
2023-10-30T06:51:30.596Z,50.875374
2023-10-30T06:52:31.094Z,50.875378
2023-10-30T06:53:30.475Z,50.875397
2023-10-30T06:54:30.534Z,50.875423
2023-10-30T06:55:30.540Z,50.875492
2023-10-30T06:56:30.542Z,50.875454
2023-10-30T06:57:30.586Z,50.875420
2023-10-30T06:58:30.483Z,50.875572
2023-10-30T06:59:30.488Z,50.875496
2023-10-30T07:00:30.598Z,50.875568
2023-10-30T07:01:31.507Z,50.875553
2023-10-30T07:02:30.529Z,50.875214
2023-10-30T07:03:30.572Z,50.875256
2023-10-30T07:04:30.604Z,50.875198
2023-10-30T07:05:30.395Z,50.875366
2023-10-30T07:06:30.404Z,50.875477
2023-10-30T07:07:30.459Z,50.875282
2023-10-30T07:08:30.453Z,50.875389
2023-10-30T07:09:30.468Z,50.875168
2023-10-30T07:10:30.357Z,50.875309
2023-10-30T07:11:30.413Z,50.875782
2023-10-30T07:12:30.379Z,50.875572
2023-10-30T07:13:30.345Z,50.875454
2023-10-30T07:14:30.325Z,50.875362
2023-10-30T07:15:30.401Z,50.875244
2023-10-30T07:16:30.361Z,50.875473
2023-10-30T07:17:30.382Z,50.875481
2023-10-30T07:18:30.382Z,50.875679
2023-10-30T07:19:30.300Z,50.875397
2023-10-30T07:20:30.301Z,50.875488
2023-10-30T07:21:30.310Z,50.875645
2023-10-30T07:22:30.290Z,50.875114
2023-10-30T07:23:30.261Z,50.876099
2023-10-30T07:24:30.354Z,50.875465
2023-10-30T07:25:30.301Z,50.875229
2023-10-30T07:26:30.177Z,50.875591
2023-10-30T07:27:30.225Z,50.875149
2023-10-30T07:28:31.278Z,50.875294
2023-10-30T07:29:30.171Z,50.875294
2023-10-30T07:30:30.210Z,50.875294
2023-10-30T07:31:30.958Z,50.875294
2023-10-30T07:32:30.193Z,50.875294
2023-10-30T07:33:30.190Z,50.875294
2023-10-30T07:34:30.145Z,50.875294
2023-10-30T07:35:30.140Z,50.875294
2023-10-30T07:36:30.167Z,50.875294
2023-10-30T07:37:30.045Z,50.875294
2023-10-30T07:38:30.042Z,50.875294
2023-10-30T07:39:30.096Z,50.875294
2023-10-30T07:40:30.036Z,50.875294
2023-10-30T07:41:30.028Z,50.875294
2023-10-30T07:42:30.110Z,50.875294
2023-10-30T07:43:30.001Z,50.875294
2023-10-30T07:44:30.006Z,50.875294
2023-10-30T07:45:30.133Z,50.875294
2023-10-30T07:46:30.082Z,50.875294
2023-10-30T07:47:43.136Z,50.875294
2023-10-30T07:48:32.003Z,50.875294
2023-10-30T07:49:29.963Z,50.875294
2023-10-30T07:50:30.195Z,50.875294
2023-10-30T07:51:29.933Z,50.875294
2023-10-30T07:52:29.934Z,50.875294
2023-10-30T07:53:29.921Z,50.875294
2023-10-30T07:54:29.955Z,50.875294
2023-10-30T07:55:29.888Z,50.875294
2023-10-30T07:56:29.909Z,50.875294
2023-10-30T07:57:29.911Z,50.875294
2023-10-30T07:58:30.005Z,50.875294
2023-10-30T07:59:29.801Z,50.875294
2023-10-30T08:00:30.603Z,50.875294
2023-10-30T08:01:29.968Z,50.875294
2023-10-30T08:02:29.896Z,50.875294
2023-10-30T08:03:30.001Z,50.875294
2023-10-30T08:04:29.960Z,50.875294
2023-10-30T08:05:29.777Z,50.875294
2023-10-30T08:06:29.789Z,50.875294
2023-10-30T08:07:29.769Z,50.875294
2023-10-30T08:08:29.859Z,50.875294
2023-10-30T08:09:29.806Z,50.875294
2023-10-30T08:10:29.773Z,50.875294
2023-10-30T08:11:29.729Z,50.875294
2023-10-30T08:12:29.930Z,50.875294
2023-10-30T08:13:30.536Z,50.875294
2023-10-30T08:14:29.706Z,50.875294
2023-10-30T08:15:29.734Z,50.875294
2023-10-30T08:16:29.755Z,50.875294
2023-10-30T08:17:29.723Z,50.875294
2023-10-30T08:18:29.684Z,50.875294
2023-10-30T08:19:29.678Z,50.875294
2023-10-30T08:20:29.620Z,50.875294
2023-10-30T08:21:29.679Z,50.875294
2023-10-30T08:22:29.652Z,50.875294
2023-10-30T08:23:29.577Z,50.875294
2023-10-30T08:24:29.618Z,50.875294
2023-10-30T08:25:29.602Z,50.875294
2023-10-30T08:26:29.586Z,50.875294
2023-10-30T08:27:29.602Z,50.875294
2023-10-30T08:28:29.543Z,50.875294
2023-10-30T08:29:29.525Z,50.875294
2023-10-30T08:30:29.611Z,50.875294
2023-10-30T08:31:29.609Z,50.875294
2023-10-30T08:32:29.556Z,50.875294
2023-10-30T08:33:29.543Z,50.875294
2023-10-30T08:34:29.481Z,50.875294
2023-10-30T08:35:29.596Z,50.875294
2023-10-30T08:36:29.544Z,50.875294
2023-10-30T08:37:29.483Z,50.875294
2023-10-30T08:38:29.635Z,50.875294
2023-10-30T08:39:29.518Z,50.875294
2023-10-30T08:40:29.673Z,50.875294
2023-10-30T08:41:29.638Z,50.875294
2023-10-30T08:42:29.585Z,50.875294
2023-10-30T08:43:29.416Z,50.875294
2023-10-30T08:44:31.281Z,50.875294
2023-10-30T08:45:30.596Z,50.875294
2023-10-30T08:46:29.609Z,50.875294
2023-10-30T08:47:29.484Z,50.875294
